Time;durP1;ratioP1;P1;durP2;ratioP2;P2;SDS_P1;SDS_P2;PMS_P1;PMS_P2;Temp;Humidity;BMP_temperature;BMP_pressure;BME280_temperature;BME280_humidity;BME280_pressure;Samples;Min_cycle;Max_cycle;Signal;HPM_P1;HPM_P2
2021/09/16 00:01:26;;;;;;;3.50;3.20;;;20.10;92.80;;;;;;5077524;28;20356;-92
2021/09/16 00:03:52;;;;;;;3.88;3.53;;;20.10;92.30;;;;;;5065269;28;20192;-92
2021/09/16 00:06:18;;;;;;;4.85;3.40;;;20.10;93.10;;;;;;5070428;28;20286;-92
2021/09/16 00:08:43;;;;;;;4.13;3.50;;;20.10;92.70;;;;;;5067144;28;20678;-92
2021/09/16 00:11:09;;;;;;;3.83;3.53;;;20.00;92.90;;;;;;5063625;28;20686;-92
2021/09/16 00:13:35;;;;;;;4.05;3.75;;;20.00;93.30;;;;;;5077189;28;20183;-92
2021/09/16 00:16:01;;;;;;;4.38;3.97;;;19.90;93.50;;;;;;5078711;28;20206;-91
2021/09/16 00:18:27;;;;;;;3.85;3.55;;;20.00;92.90;;;;;;5059747;28;20245;-93
2021/09/16 00:20:52;;;;;;;4.47;3.88;;;19.80;93.90;;;;;;5082781;28;20196;-93
2021/09/16 00:23:18;;;;;;;4.13;3.83;;;19.80;94.30;;;;;;5091132;28;20218;-94
2021/09/16 00:25:44;;;;;;;3.63;3.33;;;19.70;94.70;;;;;;5091448;28;20219;-91
2021/09/16 00:28:10;;;;;;;4.18;3.55;;;19.60;95.60;;;;;;5086493;28;20221;-92
2021/09/16 00:30:36;;;;;;;5.00;3.60;;;19.50;95.30;;;;;;5071460;28;20250;-92
2021/09/16 00:33:02;;;;;;;3.78;3.42;;;19.50;95.40;;;;;;5069318;28;20195;-92
2021/09/16 00:35:28;;;;;;;4.25;3.85;;;19.50;95.50;;;;;;5060400;28;20201;-92
2021/09/16 00:37:54;;;;;;;4.55;4.15;;;19.50;95.20;;;;;;5069104;28;20245;-92
2021/09/16 00:40:20;;;;;;;5.57;4.05;;;19.50;95.60;;;;;;5066311;28;20279;-92
2021/09/16 00:42:46;;;;;;;3.72;3.42;;;19.40;95.60;;;;;;5061385;28;20592;-92
2021/09/16 00:45:13;;;;;;;3.97;3.67;;;19.40;96.10;;;;;;5050781;28;20283;-92
2021/09/16 00:47:44;;;;;;;4.40;4.00;;;19.40;95.90;;;;;;5079344;28;20206;-92
2021/09/16 00:50:12;;;;;;;4.40;3.67;;;19.30;96.20;;;;;;5092756;28;20164;-92
2021/09/16 00:52:39;;;;;;;5.63;3.95;;;19.30;96.10;;;;;;5085639;28;20190;-92
2021/09/16 00:55:06;;;;;;;4.32;3.95;;;19.30;95.90;;;;;;5082370;28;20167;-92
2021/09/16 00:57:33;;;;;;;5.13;4.20;;;19.40;95.90;;;;;;5083236;28;20215;-92
2021/09/16 01:00:02;;;;;;;5.20;3.85;;;19.40;95.60;;;;;;5084940;28;20192;-92
2021/09/16 01:02:28;;;;;;;4.15;3.75;;;19.40;95.00;;;;;;5061048;28;20192;-92
2021/09/16 01:04:54;;;;;;;4.88;3.95;;;19.40;95.20;;;;;;5080529;28;20226;-92
2021/09/16 01:07:20;;;;;;;4.13;3.72;;;19.40;95.40;;;;;;5046615;28;20196;-92
2021/09/16 01:09:45;;;;;;;4.28;3.83;;;19.40;94.90;;;;;;5079974;28;20198;-92
2021/09/16 01:12:11;;;;;;;5.10;3.78;;;19.50;94.80;;;;;;5055576;28;20207;-92
2021/09/16 01:14:37;;;;;;;4.90;3.70;;;19.50;94.70;;;;;;5071902;28;20195;-92
2021/09/16 01:17:04;;;;;;;4.03;3.72;;;19.60;94.20;;;;;;5061539;28;20243;-92
2021/09/16 01:19:30;;;;;;;5.32;3.70;;;19.60;94.20;;;;;;5079195;28;20267;-91
2021/09/16 01:21:56;;;;;;;3.80;3.50;;;19.60;94.40;;;;;;5079326;28;20192;-92
2021/09/16 01:24:22;;;;;;;4.43;4.05;;;19.70;94.00;;;;;;5087092;28;20672;-92
2021/09/16 01:26:48;;;;;;;4.65;3.70;;;19.70;93.60;;;;;;5057603;28;20184;-92
2021/09/16 01:29:14;;;;;;;5.03;4.05;;;19.70;93.10;;;;;;5068349;28;20171;-92
2021/09/16 01:31:46;;;;;;;4.00;3.60;;;19.70;93.10;;;;;;5082833;28;20189;-92
2021/09/16 01:34:15;;;;;;;4.32;4.00;;;19.70;93.30;;;;;;5071985;28;20675;-93
2021/09/16 01:36:42;;;;;;;6.93;4.05;;;19.70;93.10;;;;;;5071638;28;20191;-93
2021/09/16 01:39:10;;;;;;;4.82;3.67;;;19.70;92.70;;;;;;5065239;28;20322;-92
2021/09/16 01:41:37;;;;;;;4.50;4.10;;;19.80;92.60;;;;;;5079844;28;20191;-92
2021/09/16 01:44:03;;;;;;;4.10;3.70;;;19.90;92.00;;;;;;5074942;28;20251;-92
2021/09/16 01:46:29;;;;;;;3.67;3.35;;;19.90;91.60;;;;;;5067564;28;20471;-92
2021/09/16 01:49:00;;;;;;;4.20;3.70;;;20.00;91.60;;;;;;5063359;28;20211;-92
2021/09/16 01:51:26;;;;;;;3.50;3.20;;;20.00;90.80;;;;;;5076106;28;20194;-92
2021/09/16 01:53:52;;;;;;;4.25;3.85;;;20.20;90.00;;;;;;5076708;28;20188;-92
2021/09/16 01:56:18;;;;;;;3.65;3.35;;;20.30;90.20;;;;;;5077402;28;20191;-91
2021/09/16 01:58:43;;;;;;;4.38;3.97;;;20.30;90.40;;;;;;5055120;28;20768;-92
2021/09/16 02:01:09;;;;;;;5.25;3.47;;;20.30;89.60;;;;;;5073808;28;20209;-92
2021/09/16 02:03:35;;;;;;;4.18;3.78;;;20.30;89.50;;;;;;5064580;28;20188;-92
2021/09/16 02:06:00;;;;;;;4.97;3.30;;;20.40;89.90;;;;;;5079893;28;20207;-92
2021/09/16 02:08:26;;;;;;;4.65;3.58;;;20.40;90.50;;;;;;5072060;28;20224;-92
2021/09/16 02:10:52;;;;;;;4.82;3.20;;;20.40;90.70;;;;;;5067686;28;20185;-92
2021/09/16 02:13:19;;;;;;;3.83;3.47;;;20.30;90.90;;;;;;5079314;28;20266;-92
2021/09/16 02:15:44;;;;;;;5.30;3.20;;;20.30;91.80;;;;;;5072944;28;20200;-92
2021/09/16 02:18:10;;;;;;;4.70;3.40;;;20.30;91.50;;;;;;5067183;28;20245;-92
2021/09/16 02:20:36;;;;;;;3.50;3.20;;;20.30;91.20;;;;;;5082398;28;20194;-92
2021/09/16 02:23:02;;;;;;;4.40;3.47;;;20.30;91.60;;;;;;5070675;28;20232;-92
2021/09/16 02:25:28;;;;;;;3.40;3.10;;;20.20;91.40;;;;;;5069538;28;20203;-92
2021/09/16 02:27:53;;;;;;;4.35;3.50;;;20.30;91.00;;;;;;5081691;28;20207;-92
2021/09/16 02:30:19;;;;;;;3.63;3.33;;;20.30;90.80;;;;;;5056291;28;20187;-92
2021/09/16 02:32:46;;;;;;;3.67;3.38;;;20.30;91.30;;;;;;5078120;28;20192;-92
2021/09/16 02:35:12;;;;;;;3.97;3.55;;;20.20;91.40;;;;;;5044764;28;20758;-92
2021/09/16 02:37:39;;;;;;;3.53;3.22;;;20.20;91.70;;;;;;5079619;28;20206;-92
2021/09/16 02:40:07;;;;;;;4.32;3.92;;;20.20;91.60;;;;;;5061486;28;20191;-92
2021/09/16 02:42:33;;;;;;;4.35;3.95;;;20.20;91.70;;;;;;5063784;28;20659;-92
2021/09/16 02:44:59;;;;;;;4.88;3.80;;;20.20;91.40;;;;;;5072070;28;20611;-92
2021/09/16 02:47:25;;;;;;;5.10;3.92;;;20.20;91.20;;;;;;5068169;28;20212;-92
2021/09/16 02:49:51;;;;;;;4.70;3.60;;;20.30;90.90;;;;;;5058785;28;20187;-92
2021/09/16 02:52:17;;;;;;;4.07;3.65;;;20.30;90.60;;;;;;5060174;28;20208;-92
2021/09/16 02:54:42;;;;;;;5.63;3.75;;;20.40;90.70;;;;;;5054782;28;20203;-93
2021/09/16 02:57:08;;;;;;;5.00;4.50;;;20.40;91.10;;;;;;5064736;28;20199;-92
2021/09/16 02:59:34;;;;;;;6.07;4.22;;;20.30;91.20;;;;;;5081332;28;20203;-92
2021/09/16 03:02:00;;;;;;;4.07;3.78;;;20.30;91.60;;;;;;5065315;28;20188;-92
2021/09/16 03:04:26;;;;;;;4.85;4.35;;;20.20;92.00;;;;;;5071503;28;20202;-92
2021/09/16 03:06:51;;;;;;;4.50;4.13;;;20.30;91.90;;;;;;5077303;28;20211;-92
2021/09/16 03:09:17;;;;;;;5.40;4.90;;;20.20;92.30;;;;;;5080928;28;20259;-93
2021/09/16 03:11:43;;;;;;;4.97;4.57;;;20.20;92.20;;;;;;5062420;28;20198;-92
2021/09/16 03:14:09;;;;;;;6.30;3.92;;;20.20;92.30;;;;;;5063198;28;20192;-92
2021/09/16 03:16:35;;;;;;;4.20;3.80;;;20.30;92.30;;;;;;5063755;28;20187;-92
2021/09/16 03:19:01;;;;;;;5.47;4.28;;;20.40;91.70;;;;;;5076925;28;20272;-93
2021/09/16 03:21:26;;;;;;;4.68;4.13;;;20.40;91.80;;;;;;5079904;28;20195;-92
2021/09/16 03:23:52;;;;;;;5.95;4.13;;;20.40;91.50;;;;;;5081108;28;20198;-92
2021/09/16 03:26:18;;;;;;;4.35;4.05;;;20.40;91.40;;;;;;5062209;28;20283;-92
2021/09/16 03:28:44;;;;;;;4.35;3.97;;;20.40;91.70;;;;;;5059085;28;20705;-93
2021/09/16 03:31:10;;;;;;;4.15;3.78;;;20.40;92.00;;;;;;5077218;28;20267;-92
2021/09/16 03:33:36;;;;;;;4.22;3.90;;;20.40;91.80;;;;;;5078841;28;20201;-92
2021/09/16 03:36:02;;;;;;;4.82;3.88;;;20.40;91.70;;;;;;5076017;28;20259;-92
2021/09/16 03:38:27;;;;;;;4.50;4.03;;;20.50;91.80;;;;;;5078559;28;20706;-92
2021/09/16 03:40:53;;;;;;;4.97;3.80;;;20.50;91.70;;;;;;5080393;28;20191;-93
2021/09/16 03:43:19;;;;;;;5.03;4.47;;;20.40;92.20;;;;;;5059501;28;20196;-91
2021/09/16 03:45:45;;;;;;;4.32;3.72;;;20.40;92.40;;;;;;5079005;28;20219;-92
2021/09/16 03:48:10;;;;;;;5.97;4.35;;;20.40;92.70;;;;;;5064031;28;20227;-91
2021/09/16 03:50:37;;;;;;;6.00;4.13;;;20.30;93.20;;;;;;5057430;28;20214;-92
2021/09/16 03:53:03;;;;;;;4.63;4.20;;;20.10;93.70;;;;;;5077241;28;20180;-92
2021/09/16 03:55:29;;;;;;;5.80;5.32;;;20.00;94.00;;;;;;5079239;28;20675;-92
2021/09/16 03:57:55;;;;;;;7.72;7.03;;;20.00;94.40;;;;;;5073897;28;20217;-92
2021/09/16 04:00:21;;;;;;;12.82;8.27;;;20.00;94.40;;;;;;5079244;28;20191;-92
2021/09/16 04:02:47;;;;;;;11.05;9.68;;;19.90;94.30;;;;;;5061104;28;20200;-92
2021/09/16 04:05:13;;;;;;;13.98;12.65;;;19.80;93.80;;;;;;5059260;28;20219;-91
2021/09/16 04:07:39;;;;;;;14.88;13.57;;;19.60;94.10;;;;;;5058207;28;20845;-92
2021/09/16 04:10:06;;;;;;;17.15;15.15;;;19.50;94.60;;;;;;5079290;28;20184;-92
2021/09/16 04:12:32;;;;;;;16.98;15.15;;;19.40;94.80;;;;;;5079279;28;20210;-92
2021/09/16 04:14:58;;;;;;;17.95;16.13;;;19.30;95.00;;;;;;5057727;28;20219;-92
2021/09/16 04:17:24;;;;;;;18.48;16.48;;;19.30;94.70;;;;;;5056070;28;20220;-91
2021/09/16 04:19:49;;;;;;;21.05;19.05;;;19.30;94.90;;;;;;5079259;28;20210;-92
2021/09/16 04:22:15;;;;;;;22.23;19.90;;;19.30;94.80;;;;;;5060653;28;20195;-91
2021/09/16 04:24:41;;;;;;;22.98;20.60;;;19.20;95.00;;;;;;5073734;28;20217;-91
2021/09/16 04:27:09;;;;;;;22.42;20.27;;;19.20;95.60;;;;;;5067259;28;20211;-91
2021/09/16 04:29:35;;;;;;;23.85;21.83;;;19.20;96.30;;;;;;5071491;28;20183;-92
2021/09/16 04:32:00;;;;;;;25.90;23.63;;;19.20;95.70;;;;;;5078318;28;20245;-93
2021/09/16 04:34:26;;;;;;;24.60;22.42;;;19.00;96.30;;;;;;5081345;28;20226;-92
2021/09/16 04:36:52;;;;;;;25.23;22.95;;;18.90;96.60;;;;;;5079744;28;20198;-93
2021/09/16 04:39:18;;;;;;;25.23;22.80;;;19.00;96.90;;;;;;5083745;28;20186;-95
2021/09/16 04:41:43;;;;;;;24.27;22.17;;;19.00;96.20;;;;;;5075735;28;20244;-92
2021/09/16 04:44:09;;;;;;;25.08;22.45;;;19.00;95.70;;;;;;5078257;28;20205;-93
2021/09/16 04:46:35;;;;;;;26.02;23.42;;;18.90;96.70;;;;;;5061783;28;20215;-94
2021/09/16 04:49:01;;;;;;;25.50;23.20;;;18.90;96.30;;;;;;5087735;28;20241;-93
2021/09/16 04:51:26;;;;;;;26.50;23.90;;;18.90;97.20;;;;;;5079245;28;20207;-94
2021/09/16 04:53:52;;;;;;;25.90;23.52;;;18.80;96.90;;;;;;5074366;28;20173;-94
2021/09/16 04:56:18;;;;;;;26.95;24.35;;;18.60;97.70;;;;;;5047783;28;20258;-94
2021/09/16 04:58:44;;;;;;;26.15;23.75;;;18.60;97.80;;;;;;5083127;28;20227;-94
2021/09/16 05:01:10;;;;;;;26.27;23.45;;;18.60;97.60;;;;;;5082663;28;20185;-94
2021/09/16 05:03:35;;;;;;;25.73;23.13;;;18.60;98.50;;;;;;5064481;28;20278;-94
2021/09/16 05:06:01;;;;;;;23.85;21.67;;;18.60;97.60;;;;;;5049267;28;20304;-92
2021/09/16 05:08:27;;;;;;;24.83;22.52;;;18.70;97.60;;;;;;5053967;28;20276;-93
2021/09/16 05:10:53;;;;;;;23.00;21.00;;;18.70;97.30;;;;;;5075335;28;20187;-94
2021/09/16 05:13:19;;;;;;;24.58;22.10;;;18.70;96.90;;;;;;5056106;28;20200;-93
2021/09/16 05:15:44;;;;;;;21.95;19.95;;;18.80;96.30;;;;;;5075265;28;20196;-93
2021/09/16 05:18:10;;;;;;;23.08;20.98;;;18.80;96.10;;;;;;5077815;28;20245;-93
2021/09/16 05:20:36;;;;;;;20.48;18.65;;;18.70;96.70;;;;;;5073530;28;20191;-93
2021/09/16 05:23:02;;;;;;;21.30;19.35;;;18.70;96.50;;;;;;5075275;28;20591;-93
2021/09/16 05:25:28;;;;;;;22.35;20.13;;;18.70;97.20;;;;;;5071446;28;20229;-92
2021/09/16 05:27:53;;;;;;;22.10;20.13;;;18.60;97.60;;;;;;5076859;28;20218;-92
2021/09/16 05:30:19;;;;;;;21.52;19.70;;;18.60;97.70;;;;;;5058481;28;20198;-92
2021/09/16 05:32:45;;;;;;;22.23;20.30;;;18.60;97.20;;;;;;5048225;28;20674;-93
2021/09/16 05:35:12;;;;;;;19.88;18.13;;;18.70;97.20;;;;;;5071127;28;20184;-93
2021/09/16 05:37:38;;;;;;;21.30;19.48;;;18.80;97.20;;;;;;5065074;28;20211;-94
2021/09/16 05:40:31;;;;;;;21.42;19.52;;;18.80;96.80;;;;;;5043568;28;20259;-92
2021/09/16 05:43:31;;;;;;;20.02;18.23;;;18.80;96.30;;;;;;5034234;28;20219;-94
2021/09/16 05:53:38;;;;;;;19.13;17.42;;;18.80;96.50;;;;;;5016656;28;20204;-92
2021/09/16 05:56:19;;;;;;;17.27;15.75;;;18.60;96.40;;;;;;4961279;28;20202;-91
2021/09/16 06:02:37;;;;;;;16.92;15.35;;;18.60;97.70;;;;;;4991894;28;20196;-90
2021/09/16 06:05:03;;;;;;;15.57;14.23;;;18.60;97.40;;;;;;4915787;29;20360;-92
2021/09/16 06:07:29;;;;;;;17.30;15.75;;;18.60;98.00;;;;;;4952318;28;20215;-91
2021/09/16 06:09:55;;;;;;;15.55;14.25;;;18.60;97.60;;;;;;4974564;28;20210;-91
2021/09/16 06:12:21;;;;;;;16.23;14.85;;;18.70;97.10;;;;;;4989432;28;20190;-91
2021/09/16 06:14:47;;;;;;;16.33;14.93;;;18.70;96.80;;;;;;4990178;28;20218;-91
2021/09/16 06:17:22;;;;;;;15.43;14.13;;;18.70;97.30;;;;;;5038668;28;20223;-92
2021/09/16 06:19:48;;;;;;;15.63;14.23;;;18.80;96.80;;;;;;5068427;28;20183;-92
2021/09/16 06:23:02;;;;;;;;;;;;;;;;;;;;;
2021/09/16 06:25:38;;;;;;;15.80;14.50;;;18.80;96.50;;;;;;5060682;28;20290;-91
2021/09/16 06:31:48;;;;;;;14.75;13.45;;;18.40;97.40;;;;;;5062439;28;20263;-91
2021/09/16 06:34:24;;;;;;;16.17;14.68;;;18.20;97.80;;;;;;5060007;28;20190;-89
2021/09/16 06:40:43;;;;;;;17.90;16.33;;;17.90;97.90;;;;;;5060392;28;20206;-90
2021/09/16 06:43:28;;;;;;;18.17;16.50;;;17.90;98.30;;;;;;5049287;28;20186;-90
2021/09/16 06:46:43;;;;;;;17.00;15.50;;;17.90;98.20;;;;;;5054956;28;20206;-91
2021/09/16 06:49:39;;;;;;;17.50;15.90;;;18.00;98.40;;;;;;5060937;28;20216;-91
2021/09/16 06:52:43;;;;;;;18.40;16.77;;;18.00;97.60;;;;;;5055953;28;20187;-90
2021/09/16 06:55:46;;;;;;;16.70;15.20;;;18.00;97.80;;;;;;4977950;28;20206;-90
2021/09/16 06:58:44;;;;;;;16.88;15.40;;;18.00;98.00;;;;;;4973087;28;20451;-91
2021/09/16 07:05:20;;;;;;;17.55;16.02;;;17.90;97.30;;;;;;4944817;28;20199;-89
2021/09/16 07:08:05;;;;;;;;;;;;;;;;;;;;;
2021/09/16 07:11:04;;;;;;;17.15;15.65;;;18.00;97.70;;;;;;4973633;28;20236;-90
2021/09/16 07:19:45;;;;;;;17.98;16.15;;;18.20;95.90;;;;;;5074597;28;20197;-90
2021/09/16 07:22:31;;;;;;;16.00;14.57;;;18.30;95.90;;;;;;5045940;28;20215;-89
2021/09/16 07:28:47;;;;;;;16.60;15.25;;;18.30;96.40;;;;;;5070103;28;20219;-89
2021/09/16 07:31:19;;;;;;;15.88;14.35;;;18.30;95.00;;;;;;5065015;28;20567;-89
2021/09/16 07:33:57;;;;;;;14.75;13.48;;;18.20;95.10;;;;;;5059482;28;20196;-91
2021/09/16 07:36:26;;;;;;;14.73;13.45;;;18.40;94.80;;;;;;5057546;28;20203;-89
2021/09/16 07:38:52;;;;;;;14.93;13.57;;;18.40;95.60;;;;;;5059820;28;20207;-91
2021/09/16 07:45:16;;;;;;;14.88;13.43;;;18.60;94.60;;;;;;5036864;28;20228;-91
2021/09/16 07:47:45;;;;;;;16.65;15.05;;;18.60;94.40;;;;;;5058836;28;20215;-89
2021/09/16 07:50:28;;;;;;;19.08;17.27;;;18.60;94.10;;;;;;5075728;28;20188;-91
2021/09/16 07:53:13;;;;;;;;;;;;;;;;;;;;;
2021/09/16 07:55:53;;;;;;;17.42;16.00;;;18.70;93.40;;;;;;5044956;28;20799;-91
2021/09/16 07:58:49;;;;;;;;;;;;;;;;;;;;;
2021/09/16 08:01:15;;;;;;;15.38;13.88;;;18.70;93.40;;;;;;5016583;28;20296;-90
2021/09/16 08:03:42;;;;;;;18.08;15.70;;;18.90;93.20;;;;;;5058238;28;20664;-91
2021/09/16 08:06:09;;;;;;;15.70;14.40;;;19.00;92.10;;;;;;5079103;28;20209;-91
2021/09/16 08:09:07;;;;;;;16.33;14.82;;;19.00;92.60;;;;;;5058014;28;20199;-90
2021/09/16 08:11:35;;;;;;;19.70;17.98;;;18.90;92.80;;;;;;5045375;28;20259;-91
2021/09/16 08:14:01;;;;;;;17.73;15.95;;;18.90;92.80;;;;;;5043746;28;20192;-91
2021/09/16 08:16:30;;;;;;;18.83;16.98;;;18.80;92.50;;;;;;5044709;28;20652;-90
2021/09/16 08:19:07;;;;;;;18.00;16.27;;;18.80;93.70;;;;;;5075128;28;20230;-90
2021/09/16 08:21:34;;;;;;;15.95;14.65;;;18.80;93.30;;;;;;5060380;28;20192;-91
2021/09/16 08:24:03;;;;;;;17.83;16.27;;;18.80;93.00;;;;;;5078849;28;20188;-91
2021/09/16 08:26:29;;;;;;;17.95;16.35;;;18.80;93.60;;;;;;5064612;28;20248;-91
2021/09/16 08:28:55;;;;;;;16.35;14.75;;;18.80;93.20;;;;;;5090280;28;20219;-92
2021/09/16 08:31:23;;;;;;;15.75;14.25;;;18.80;92.50;;;;;;5089139;28;20195;-92
2021/09/16 08:33:52;;;;;;;17.80;16.20;;;19.00;92.20;;;;;;5054094;28;20191;-91
2021/09/16 08:36:19;;;;;;;14.40;13.10;;;19.10;90.90;;;;;;5064602;28;20239;-91
2021/09/16 08:38:45;;;;;;;15.70;14.35;;;19.10;91.50;;;;;;5056897;28;20580;-91
2021/09/16 08:41:11;;;;;;;16.23;14.82;;;19.20;90.80;;;;;;5062148;28;20182;-91
2021/09/16 08:43:39;;;;;;;16.90;15.40;;;19.30;90.50;;;;;;5059278;28;20198;-92
2021/09/16 08:46:05;;;;;;;14.73;13.50;;;19.30;91.00;;;;;;5069528;28;20211;-91
2021/09/16 08:48:32;;;;;;;15.43;14.05;;;19.20;90.10;;;;;;5041893;28;20217;-91
2021/09/16 08:51:01;;;;;;;15.57;14.25;;;19.40;90.80;;;;;;5042454;28;20199;-91
2021/09/16 08:53:30;;;;;;;17.10;15.57;;;19.40;90.50;;;;;;5051319;28;20194;-91
2021/09/16 08:55:59;;;;;;;16.20;14.68;;;19.40;91.20;;;;;;5056298;28;20226;-92
2021/09/16 08:58:32;;;;;;;14.70;13.50;;;19.50;89.50;;;;;;5077349;28;20197;-92
2021/09/16 09:00:58;;;;;;;16.65;15.05;;;19.60;88.00;;;;;;5084784;28;20186;-91
2021/09/16 09:03:24;;;;;;;17.17;15.57;;;19.60;89.60;;;;;;5058056;28;20183;-91
2021/09/16 09:05:50;;;;;;;16.95;15.18;;;19.60;88.50;;;;;;5059220;28;20249;-91
2021/09/16 09:08:23;;;;;;;14.15;12.95;;;19.50;88.10;;;;;;5060380;28;20592;-92
2021/09/16 09:10:52;;;;;;;14.93;13.55;;;19.50;88.20;;;;;;5051617;28;20835;-91
2021/09/16 09:13:30;;;;;;;18.42;16.55;;;19.60;88.90;;;;;;5041309;28;20197;-91
2021/09/16 09:16:05;;;;;;;16.38;15.05;;;19.50;88.40;;;;;;5073265;28;20340;-91
2021/09/16 09:18:45;;;;;;;16.00;14.60;;;19.50;88.50;;;;;;5069760;28;20755;-91
2021/09/16 09:21:12;;;;;;;16.48;14.75;;;19.60;87.50;;;;;;5057232;28;20193;-92
2021/09/16 09:23:42;;;;;;;15.20;13.88;;;19.70;88.80;;;;;;5046186;28;20205;-91
2021/09/16 09:26:27;;;;;;;15.45;14.00;;;19.60;89.20;;;;;;5077834;28;20214;-92
2021/09/16 09:29:12;;;;;;;15.27;13.98;;;19.60;87.90;;;;;;5060666;28;20204;-92
2021/09/16 09:31:57;;;;;;;15.38;13.98;;;19.40;89.60;;;;;;5057119;28;20192;-92
2021/09/16 09:34:32;;;;;;;15.15;13.95;;;19.50;89.60;;;;;;5082429;28;20633;-92
2021/09/16 09:37:07;;;;;;;15.52;14.00;;;19.50;86.70;;;;;;5066818;28;20205;-92
2021/09/16 09:39:33;;;;;;;15.07;13.85;;;19.50;89.80;;;;;;5082676;28;20185;-91
2021/09/16 09:42:17;;;;;;;15.35;13.90;;;19.50;89.20;;;;;;5081272;28;20231;-91
2021/09/16 09:44:47;;;;;;;14.85;13.63;;;19.30;89.10;;;;;;5063472;28;20189;-91
2021/09/16 09:47:13;;;;;;;15.05;13.50;;;19.40;89.50;;;;;;5076168;28;20237;-92
2021/09/16 09:49:39;;;;;;;14.93;13.63;;;19.50;89.70;;;;;;5060089;28;20191;-90
2021/09/16 09:52:09;;;;;;;13.98;12.80;;;19.60;88.50;;;;;;5061638;28;20212;-91
2021/09/16 09:54:38;;;;;;;12.82;11.68;;;19.70;89.20;;;;;;5075074;28;20180;-91
2021/09/16 09:57:20;;;;;;;12.55;11.55;;;19.70;88.80;;;;;;5075021;28;20760;-91
2021/09/16 09:59:58;;;;;;;12.57;11.55;;;19.80;89.30;;;;;;5054549;28;20190;-91
2021/09/16 10:02:29;;;;;;;11.02;10.15;;;19.90;88.30;;;;;;5075520;28;20247;-91
2021/09/16 10:04:56;;;;;;;10.50;9.48;;;19.90;86.00;;;;;;5060437;28;20197;-91
2021/09/16 10:07:27;;;;;;;11.45;10.20;;;19.80;83.70;;;;;;5054655;28;20247;-91
2021/09/16 10:09:55;;;;;;;11.27;10.38;;;19.80;86.00;;;;;;5057314;28;21540;-92
2021/09/16 10:12:21;;;;;;;10.45;9.35;;;19.90;85.50;;;;;;5077885;28;20238;-92
2021/09/16 10:14:47;;;;;;;11.52;10.32;;;20.00;83.80;;;;;;5057719;28;20721;-91
2021/09/16 10:17:13;;;;;;;10.02;9.32;;;20.10;85.70;;;;;;5071932;28;20225;-91
2021/09/16 10:19:41;;;;;;;10.48;9.57;;;20.20;83.90;;;;;;5052318;28;20214;-92
2021/09/16 10:22:14;;;;;;;10.32;9.35;;;20.20;84.70;;;;;;5067362;28;20184;-91
2021/09/16 10:24:41;;;;;;;11.25;9.82;;;20.20;84.20;;;;;;5048049;28;20186;-91
2021/09/16 10:27:30;;;;;;;12.25;11.00;;;20.20;83.20;;;;;;5049020;28;20184;-91
2021/09/16 10:29:58;;;;;;;10.75;9.88;;;20.20;81.90;;;;;;5049109;28;20191;-91
2021/09/16 10:36:13;;;;;;;11.25;10.15;;;20.00;83.40;;;;;;5062154;28;20192;-92
2021/09/16 10:42:05;;;;;;;9.88;8.90;;;20.10;83.90;;;;;;5061987;28;20689;-92
2021/09/16 10:45:27;;;;;;;9.90;8.90;;;20.30;83.30;;;;;;5049336;28;20202;-92
2021/09/16 10:48:52;;;;;;;10.80;9.15;;;20.40;81.10;;;;;;5060365;28;20215;-92
2021/09/16 10:51:46;;;;;;;10.13;9.15;;;20.60;80.10;;;;;;5052488;28;20282;-89
2021/09/16 10:54:49;;;;;;;11.32;9.02;;;20.80;78.10;;;;;;5056669;28;20930;-90
2021/09/16 10:57:38;;;;;;;8.82;8.07;;;20.80;77.90;;;;;;5066061;28;20246;-90
2021/09/16 11:01:11;;;;;;;8.35;7.45;;;20.80;77.60;;;;;;5047698;28;20198;-91
2021/09/16 11:04:18;;;;;;;8.98;8.13;;;20.80;76.20;;;;;;5065886;28;20192;-91
2021/09/16 11:06:48;;;;;;;9.18;8.38;;;20.70;78.50;;;;;;5031861;28;20223;-90
2021/09/16 11:09:31;;;;;;;9.77;8.70;;;20.80;77.80;;;;;;5065676;28;20225;-89
2021/09/16 11:12:05;;;;;;;8.23;7.53;;;20.80;78.30;;;;;;5041055;28;20185;-90
2021/09/16 11:14:47;;;;;;;9.52;8.30;;;20.80;77.50;;;;;;5045934;28;20199;-89
2021/09/16 11:17:29;;;;;;;10.70;7.00;;;20.90;77.20;;;;;;5049740;28;20702;-90
2021/09/16 11:20:05;;;;;;;;;;;;;;;;;;;;;
2021/09/16 11:22:31;;;;;;;7.10;6.40;;;20.90;76.20;;;;;;5064688;28;20336;-90
2021/09/16 11:24:58;;;;;;;8.00;7.20;;;21.00;74.70;;;;;;5062407;28;20238;-89
2021/09/16 11:27:39;;;;;;;7.50;6.80;;;21.00;73.50;;;;;;5050089;28;20210;-90
2021/09/16 11:30:23;;;;;;;7.97;7.28;;;21.10;74.10;;;;;;5046533;28;20195;-89
2021/09/16 11:32:49;;;;;;;7.72;7.05;;;21.10;72.30;;;;;;5081957;28;20199;-91
2021/09/16 11:35:19;;;;;;;7.88;7.10;;;21.00;73.70;;;;;;5054512;28;20187;-91
2021/09/16 11:37:53;;;;;;;8.13;7.30;;;21.30;73.40;;;;;;5045429;28;20207;-90
2021/09/16 11:40:29;;;;;;;7.88;7.07;;;21.30;72.00;;;;;;5040917;28;20195;-89
2021/09/16 11:43:02;;;;;;;8.65;6.85;;;21.30;73.10;;;;;;5061832;28;20183;-91
2021/09/16 11:45:49;;;;;;;8.98;8.18;;;21.20;73.40;;;;;;5050838;28;20230;-91
2021/09/16 11:48:23;;;;;;;9.80;6.65;;;21.00;72.20;;;;;;5043471;28;20214;-90
2021/09/16 11:50:54;;;;;;;8.77;7.78;;;20.80;74.50;;;;;;5043928;28;20198;-91
2021/09/16 11:53:28;;;;;;;7.63;6.93;;;20.80;74.70;;;;;;5070831;28;20181;-88
2021/09/16 11:55:57;;;;;;;8.50;7.70;;;20.90;74.60;;;;;;5063033;28;20563;-89
2021/09/16 11:58:29;;;;;;;8.52;7.80;;;21.00;74.00;;;;;;5064328;28;20445;-89
2021/09/16 12:01:01;;;;;;;9.35;8.50;;;21.20;72.30;;;;;;5061077;28;20183;-90
2021/09/16 12:03:35;;;;;;;8.77;7.97;;;21.30;72.00;;;;;;5047770;28;20199;-89
2021/09/16 12:06:09;;;;;;;9.15;8.35;;;21.50;73.60;;;;;;5068559;28;20210;-89
2021/09/16 12:08:43;;;;;;;9.98;9.07;;;21.40;72.80;;;;;;5049456;28;20218;-89
2021/09/16 12:11:23;;;;;;;8.88;8.07;;;21.70;70.90;;;;;;5061587;28;20180;-89
2021/09/16 12:13:49;;;;;;;9.98;8.50;;;21.80;71.60;;;;;;5067925;28;20184;-89
2021/09/16 12:16:20;;;;;;;8.98;8.13;;;21.90;70.70;;;;;;5063395;28;20649;-89
2021/09/16 12:18:53;;;;;;;8.60;7.90;;;22.00;70.00;;;;;;5069299;28;20226;-89
2021/09/16 12:21:32;;;;;;;8.18;7.50;;;22.20;70.70;;;;;;5062082;28;20249;-90
2021/09/16 12:24:06;;;;;;;7.82;7.13;;;22.30;69.80;;;;;;5063174;28;20195;-88
2021/09/16 12:26:41;;;;;;;8.43;7.70;;;22.20;69.70;;;;;;5070209;28;20713;-89
2021/09/16 12:29:10;;;;;;;7.93;7.30;;;22.30;69.00;;;;;;5068298;28;20655;-88
2021/09/16 12:31:41;;;;;;;9.35;8.52;;;22.30;67.80;;;;;;5045367;28;20262;-90
2021/09/16 12:34:13;;;;;;;8.70;8.00;;;22.30;70.30;;;;;;5067847;28;20191;-87
2021/09/16 12:37:03;;;;;;;11.02;8.68;;;22.30;68.30;;;;;;5047784;28;20192;-89
2021/09/16 12:39:43;;;;;;;8.90;8.15;;;22.30;68.40;;;;;;5045054;28;20192;-89
2021/09/16 12:42:09;;;;;;;9.38;7.90;;;22.30;68.10;;;;;;5064504;28;20198;-89
2021/09/16 12:44:38;;;;;;;9.88;8.93;;;22.60;67.90;;;;;;5061245;28;20373;-88
2021/09/16 12:47:12;;;;;;;9.57;8.70;;;22.60;68.50;;;;;;5062736;28;20196;-88
2021/09/16 12:49:41;;;;;;;9.07;8.32;;;22.50;68.20;;;;;;5047610;28;20202;-89
2021/09/16 12:52:10;;;;;;;9.18;8.25;;;22.60;69.10;;;;;;5069677;28;20189;-88
2021/09/16 12:54:52;;;;;;;8.57;7.90;;;22.70;67.30;;;;;;5066824;28;20200;-88
2021/09/16 12:57:23;;;;;;;9.00;8.10;;;22.90;67.90;;;;;;5050722;28;20206;-88
2021/09/16 12:59:55;;;;;;;10.13;8.45;;;23.20;65.50;;;;;;5063419;28;20192;-87
2021/09/16 13:02:23;;;;;;;9.23;8.38;;;23.50;64.60;;;;;;5049075;28;20700;-87
2021/09/16 13:05:12;;;;;;;9.63;8.57;;;23.60;65.60;;;;;;5065895;28;20221;-87
2021/09/16 13:07:40;;;;;;;8.52;7.82;;;24.10;63.20;;;;;;5050111;28;20203;-87
2021/09/16 13:10:24;;;;;;;9.90;7.95;;;24.10;62.70;;;;;;5053420;28;20188;-87
2021/09/16 13:13:03;;;;;;;8.20;7.57;;;23.40;63.50;;;;;;5053537;28;20195;-87
2021/09/16 13:15:30;;;;;;;7.80;7.20;;;23.30;65.80;;;;;;5049578;28;20184;-87
2021/09/16 13:17:56;;;;;;;9.57;8.73;;;23.20;67.30;;;;;;5050522;28;20250;-86
2021/09/16 13:20:23;;;;;;;8.48;7.68;;;22.80;66.90;;;;;;5074059;28;20187;-86
2021/09/16 13:22:51;;;;;;;8.07;7.38;;;22.70;70.70;;;;;;5066801;28;20196;-88
2021/09/16 13:25:17;;;;;;;10.77;8.57;;;22.90;68.20;;;;;;5067992;28;20212;-86
2021/09/16 13:27:42;;;;;;;9.35;8.65;;;22.90;66.60;;;;;;5048590;28;20204;-86
2021/09/16 13:30:10;;;;;;;9.02;8.23;;;22.90;67.70;;;;;;5052213;28;20245;-87
2021/09/16 13:32:36;;;;;;;9.93;9.13;;;22.80;67.90;;;;;;5071186;28;20186;-87
2021/09/16 13:35:03;;;;;;;8.95;8.35;;;22.90;69.60;;;;;;5037743;28;20191;-88
2021/09/16 13:37:29;;;;;;;9.30;8.50;;;22.80;68.40;;;;;;5062281;28;20215;-87
2021/09/16 13:39:54;;;;;;;8.50;7.82;;;22.90;69.00;;;;;;5069679;28;20271;-88
2021/09/16 13:42:21;;;;;;;8.45;7.82;;;23.10;67.60;;;;;;5073241;28;20191;-88
2021/09/16 13:44:46;;;;;;;8.70;7.80;;;23.20;66.20;;;;;;5056672;28;20184;-86
2021/09/16 13:47:12;;;;;;;9.50;8.57;;;23.30;66.40;;;;;;5070344;28;20286;-86